BAW614 EGLL-LIRP
Flight info
| Callsign | BAW614 |
|---|---|
| Flight time | 1h 53m |
| Altitude | 37000 |
| Route | MODMI M185 MID L612 BOGNA UL612 VEULE DCT TEPRI DCT POGZI DCT GELTA DCT LUVAL DCT SHARA DCT DEVDI DCT ODINA DCT SRN DCT ROBAS DCT OSBUL DCT EKPAL DCT MIVKI |
| Aircraft | A21N/M-SDE2E3FGHIRWXY/LB1 |
Departure
| Time | 2026-05-05 13:01 |
|---|---|
| Airport | London Heathrow Airport (EGLL) |
Arrival
| Time | 2026-05-05 14:54 |
|---|---|
| Airport | Pisa International Airport (LIRP) |
| Time | Latitude | Longitude | Altitude | Speed | Heading |
|---|---|---|---|---|---|
| 2026-05-05 12:55 | 51.46876 | -0.48601 | 92 ft | 0 kts | 90° |
| 2026-05-05 12:56 | 51.46876 | -0.48600 | 92 ft | 1 kts | 90° |
| 2026-05-05 12:57 | 51.46876 | -0.48573 | 92 ft | 4 kts | 90° |
| 2026-05-05 12:57 | 51.46877 | -0.48516 | 92 ft | 6 kts | 90° |
| 2026-05-05 12:57 | 51.46844 | -0.48472 | 93 ft | 8 kts | 174° |
| 2026-05-05 12:57 | 51.46820 | -0.48471 | 94 ft | 4 kts | 181° |
| 2026-05-05 12:58 | 51.46787 | -0.48472 | 94 ft | 6 kts | 181° |
| 2026-05-05 12:58 | 51.46740 | -0.48472 | 92 ft | 8 kts | 179° |
| 2026-05-05 12:58 | 51.46681 | -0.48471 | 92 ft | 10 kts | 179° |
| 2026-05-05 12:58 | 51.46609 | -0.48470 | 93 ft | 2 kts | 180° |
| 2026-05-05 12:59 | 51.46585 | -0.48470 | 93 ft | 5 kts | 180° |
| 2026-05-05 12:59 | 51.46543 | -0.48471 | 94 ft | 7 kts | 180° |
| 2026-05-05 12:59 | 51.46491 | -0.48441 | 95 ft | 9 kts | 126° |
| 2026-05-05 13:00 | 51.46479 | -0.48295 | 94 ft | 0 kts | 92° |
| 2026-05-05 13:00 | 51.46478 | -0.48168 | 93 ft | 40 kts | 90° |
| 2026-05-05 13:01 | 51.46484 | -0.43997 | 480 ft | 165 kts | 87° |
| 2026-05-05 13:01 | 51.46523 | -0.42144 | 1156 ft | 168 kts | 84° |
| 2026-05-05 13:01 | 51.46297 | -0.40270 | 1662 ft | 185 kts | 116° |
| 2026-05-05 13:01 | 51.45309 | -0.38771 | 2091 ft | 208 kts | 140° |
| 2026-05-05 13:02 | 51.44243 | -0.37100 | 2681 ft | 224 kts | 134° |
| 2026-05-05 13:02 | 51.42792 | -0.35930 | 3226 ft | 247 kts | 168° |
| 2026-05-05 13:02 | 51.41026 | -0.36172 | 3763 ft | 269 kts | 199° |
| 2026-05-05 13:02 | 51.39288 | -0.37410 | 4643 ft | 275 kts | 205° |
| 2026-05-05 13:03 | 51.37553 | -0.38721 | 5647 ft | 275 kts | 204° |
| 2026-05-05 13:03 | 51.35822 | -0.39988 | 6660 ft | 274 kts | 204° |
| 2026-05-05 13:03 | 51.34074 | -0.41233 | 7545 ft | 277 kts | 203° |
| 2026-05-05 13:03 | 51.32277 | -0.42443 | 8330 ft | 285 kts | 197° |
| 2026-05-05 13:04 | 51.30333 | -0.42762 | 9161 ft | 288 kts | 174° |
| 2026-05-05 13:04 | 51.28352 | -0.42233 | 10088 ft | 289 kts | 168° |
| 2026-05-05 13:04 | 51.26316 | -0.41565 | 10519 ft | 310 kts | 168° |
| 2026-05-05 13:04 | 51.24134 | -0.40866 | 10845 ft | 332 kts | 168° |
| 2026-05-05 13:05 | 51.21801 | -0.40149 | 11244 ft | 349 kts | 168° |
| 2026-05-05 13:05 | 51.19390 | -0.39428 | 11994 ft | 354 kts | 168° |
| 2026-05-05 13:05 | 51.16961 | -0.38710 | 12876 ft | 355 kts | 168° |
| 2026-05-05 13:05 | 51.14519 | -0.37993 | 13706 ft | 359 kts | 168° |
| 2026-05-05 13:06 | 51.12049 | -0.37269 | 14384 ft | 364 kts | 168° |
| 2026-05-05 13:06 | 51.09550 | -0.36539 | 15098 ft | 367 kts | 168° |
| 2026-05-05 13:06 | 51.07030 | -0.35805 | 15847 ft | 369 kts | 168° |
| 2026-05-05 13:06 | 51.04493 | -0.35068 | 16534 ft | 373 kts | 168° |
| 2026-05-05 13:07 | 51.01929 | -0.34321 | 17203 ft | 377 kts | 168° |
| 2026-05-05 13:07 | 50.99332 | -0.33567 | 17893 ft | 380 kts | 169° |
| 2026-05-05 13:07 | 50.96721 | -0.32811 | 18520 ft | 383 kts | 169° |
| 2026-05-05 13:07 | 50.94083 | -0.32046 | 19087 ft | 386 kts | 169° |
| 2026-05-05 13:08 | 50.91224 | -0.31221 | 19706 ft | 389 kts | 169° |
| 2026-05-05 13:08 | 50.88546 | -0.30448 | 20258 ft | 392 kts | 169° |
| 2026-05-05 13:08 | 50.85852 | -0.29669 | 20797 ft | 395 kts | 169° |
| 2026-05-05 13:09 | 50.83138 | -0.28888 | 21333 ft | 399 kts | 169° |
| 2026-05-05 13:09 | 50.80401 | -0.28101 | 21879 ft | 401 kts | 169° |
| 2026-05-05 13:09 | 50.77637 | -0.27307 | 22414 ft | 405 kts | 169° |
| 2026-05-05 13:09 | 50.74860 | -0.26509 | 22948 ft | 408 kts | 170° |
| 2026-05-05 13:10 | 50.72057 | -0.25665 | 23468 ft | 411 kts | 167° |
| 2026-05-05 13:10 | 50.69350 | -0.24193 | 23908 ft | 414 kts | 154° |
| 2026-05-05 13:10 | 50.66858 | -0.21892 | 24409 ft | 415 kts | 147° |
| 2026-05-05 13:10 | 50.64474 | -0.19327 | 24904 ft | 415 kts | 146° |
| 2026-05-05 13:11 | 50.62103 | -0.16755 | 25379 ft | 415 kts | 146° |
| 2026-05-05 13:11 | 50.59697 | -0.14184 | 25782 ft | 417 kts | 146° |
| 2026-05-05 13:11 | 50.57282 | -0.11643 | 26225 ft | 418 kts | 146° |
| 2026-05-05 13:11 | 50.54858 | -0.09112 | 26626 ft | 420 kts | 147° |
| 2026-05-05 13:12 | 50.52451 | -0.06606 | 27019 ft | 421 kts | 147° |
| 2026-05-05 13:12 | 50.49974 | -0.04030 | 27396 ft | 423 kts | 147° |
| 2026-05-05 13:12 | 50.47508 | -0.01469 | 27770 ft | 424 kts | 147° |
| 2026-05-05 13:12 | 50.45070 | 0.01061 | 28121 ft | 426 kts | 147° |
| 2026-05-05 13:13 | 50.42590 | 0.03639 | 28464 ft | 428 kts | 147° |
| 2026-05-05 13:13 | 50.40102 | 0.06220 | 28819 ft | 430 kts | 147° |
| 2026-05-05 13:13 | 50.37607 | 0.08804 | 29160 ft | 431 kts | 147° |
| 2026-05-05 13:13 | 50.35091 | 0.11407 | 29496 ft | 433 kts | 147° |
| 2026-05-05 13:14 | 50.32582 | 0.13997 | 29829 ft | 434 kts | 147° |
| 2026-05-05 13:14 | 50.30055 | 0.16601 | 30117 ft | 436 kts | 147° |
| 2026-05-05 13:14 | 50.27515 | 0.19214 | 30385 ft | 437 kts | 147° |
| 2026-05-05 13:14 | 50.24971 | 0.21828 | 30693 ft | 438 kts | 147° |
| 2026-05-05 13:15 | 50.22421 | 0.24445 | 31001 ft | 437 kts | 147° |
| 2026-05-05 13:15 | 50.19886 | 0.27041 | 31376 ft | 435 kts | 147° |
| 2026-05-05 13:15 | 50.17395 | 0.29599 | 31759 ft | 433 kts | 147° |
| 2026-05-05 13:15 | 50.14886 | 0.32181 | 32142 ft | 431 kts | 148° |
| 2026-05-05 13:16 | 50.12385 | 0.34753 | 32434 ft | 431 kts | 148° |
| 2026-05-05 13:16 | 50.09882 | 0.37322 | 32737 ft | 430 kts | 148° |
| 2026-05-05 13:16 | 50.07389 | 0.39876 | 33045 ft | 429 kts | 148° |
| 2026-05-05 13:16 | 50.04893 | 0.42431 | 33295 ft | 430 kts | 148° |
| 2026-05-05 13:17 | 50.02396 | 0.44983 | 33572 ft | 429 kts | 148° |
| 2026-05-05 13:17 | 49.99905 | 0.47523 | 33872 ft | 427 kts | 148° |
| 2026-05-05 13:17 | 49.97415 | 0.50059 | 34105 ft | 427 kts | 148° |
| 2026-05-05 13:17 | 49.94928 | 0.52590 | 34273 ft | 428 kts | 148° |
| 2026-05-05 13:18 | 49.92440 | 0.55122 | 34440 ft | 428 kts | 148° |
| 2026-05-05 13:18 | 49.89948 | 0.57653 | 34616 ft | 428 kts | 148° |
| 2026-05-05 13:18 | 49.87454 | 0.60193 | 34791 ft | 428 kts | 147° |
| 2026-05-05 13:18 | 49.85101 | 0.63029 | 34955 ft | 430 kts | 138° |
| 2026-05-05 13:19 | 49.83022 | 0.66363 | 35116 ft | 431 kts | 134° |
| 2026-05-05 13:19 | 49.81010 | 0.69816 | 35271 ft | 432 kts | 134° |
| 2026-05-05 13:19 | 49.79002 | 0.73269 | 35413 ft | 432 kts | 134° |
| 2026-05-05 13:19 | 49.76983 | 0.76715 | 35564 ft | 432 kts | 134° |
| 2026-05-05 13:20 | 49.74958 | 0.80152 | 35720 ft | 433 kts | 134° |
| 2026-05-05 13:20 | 49.72918 | 0.83601 | 35848 ft | 433 kts | 134° |
| 2026-05-05 13:20 | 49.70882 | 0.87038 | 35993 ft | 433 kts | 134° |
| 2026-05-05 13:20 | 49.68873 | 0.90420 | 36126 ft | 433 kts | 134° |
| 2026-05-05 13:21 | 49.66833 | 0.93853 | 36250 ft | 433 kts | 134° |
| 2026-05-05 13:21 | 49.64764 | 0.97327 | 36378 ft | 434 kts | 134° |
| 2026-05-05 13:21 | 49.62723 | 1.00751 | 36503 ft | 434 kts | 134° |
| 2026-05-05 13:21 | 49.60714 | 1.04121 | 36619 ft | 434 kts | 134° |
| 2026-05-05 13:22 | 49.58668 | 1.07546 | 36753 ft | 434 kts | 134° |
| 2026-05-05 13:22 | 49.56622 | 1.10967 | 36874 ft | 434 kts | 134° |
| 2026-05-05 13:22 | 49.52520 | 1.17811 | 36909 ft | 434 kts | 134° |
| 2026-05-05 13:23 | 49.48417 | 1.24636 | 36883 ft | 434 kts | 134° |
| 2026-05-05 13:23 | 49.44311 | 1.31447 | 36879 ft | 434 kts | 134° |
| 2026-05-05 13:24 | 49.40205 | 1.38241 | 36877 ft | 434 kts | 134° |
| 2026-05-05 13:24 | 49.36093 | 1.45030 | 36874 ft | 434 kts | 134° |
| 2026-05-05 13:25 | 49.31986 | 1.51789 | 36863 ft | 433 kts | 134° |
| 2026-05-05 13:25 | 49.27860 | 1.58559 | 36858 ft | 434 kts | 134° |
| 2026-05-05 13:26 | 49.23736 | 1.65315 | 36845 ft | 435 kts | 134° |
| 2026-05-05 13:26 | 49.19605 | 1.72065 | 36845 ft | 436 kts | 134° |
| 2026-05-05 13:27 | 49.15474 | 1.78792 | 36852 ft | 435 kts | 134° |
| 2026-05-05 13:27 | 49.11339 | 1.85506 | 36859 ft | 434 kts | 135° |
| 2026-05-05 13:28 | 49.07206 | 1.92210 | 36827 ft | 434 kts | 134° |
| 2026-05-05 13:28 | 49.03049 | 1.98928 | 36840 ft | 433 kts | 135° |
| 2026-05-05 13:29 | 48.98902 | 2.05614 | 36846 ft | 435 kts | 134° |
| 2026-05-05 13:29 | 48.94746 | 2.12300 | 36843 ft | 437 kts | 135° |
| 2026-05-05 13:30 | 48.90607 | 2.18939 | 36826 ft | 436 kts | 135° |
| 2026-05-05 13:30 | 48.86437 | 2.25604 | 36819 ft | 435 kts | 135° |
| 2026-05-05 13:31 | 48.82263 | 2.32264 | 36812 ft | 435 kts | 135° |
| 2026-05-05 13:31 | 48.78078 | 2.38920 | 36817 ft | 437 kts | 135° |
| 2026-05-05 13:32 | 48.73882 | 2.45583 | 36819 ft | 438 kts | 135° |
| 2026-05-05 13:32 | 48.71791 | 2.48896 | 37206 ft | 429 kts | 135° |
| 2026-05-05 13:32 | 48.69755 | 2.52117 | 37785 ft | 418 kts | 135° |
| 2026-05-05 13:33 | 48.65787 | 2.58378 | 37169 ft | 419 kts | 135° |
| 2026-05-05 13:33 | 48.63740 | 2.61601 | 36880 ft | 429 kts | 135° |
| 2026-05-05 13:33 | 48.61660 | 2.64877 | 36811 ft | 434 kts | 135° |
| 2026-05-05 13:34 | 48.57583 | 2.71660 | 36808 ft | 438 kts | 127° |
| 2026-05-05 13:34 | 48.56055 | 2.75643 | 36813 ft | 441 kts | 115° |
| 2026-05-05 13:34 | 48.55367 | 2.78541 | 36813 ft | 443 kts | 107° |
| 2026-05-05 13:35 | 48.54863 | 2.83123 | 36823 ft | 446 kts | 96° |
| 2026-05-05 13:35 | 48.54713 | 2.87817 | 36808 ft | 447 kts | 94° |
| 2026-05-05 13:35 | 48.54484 | 2.97196 | 36804 ft | 447 kts | 94° |
| 2026-05-05 13:36 | 48.54185 | 3.06555 | 36802 ft | 447 kts | 95° |
| 2026-05-05 13:36 | 48.53857 | 3.15926 | 36792 ft | 448 kts | 95° |
| 2026-05-05 13:37 | 48.53521 | 3.25298 | 36792 ft | 447 kts | 95° |
| 2026-05-05 13:37 | 48.53178 | 3.34676 | 36790 ft | 448 kts | 95° |
| 2026-05-05 13:38 | 48.52827 | 3.44060 | 36789 ft | 448 kts | 95° |
| 2026-05-05 13:38 | 48.52469 | 3.53439 | 36789 ft | 448 kts | 95° |
| 2026-05-05 13:39 | 48.52105 | 3.62762 | 36778 ft | 448 kts | 95° |
| 2026-05-05 13:39 | 48.51729 | 3.72162 | 36785 ft | 447 kts | 96° |
| 2026-05-05 13:40 | 48.51346 | 3.81555 | 36786 ft | 447 kts | 96° |
| 2026-05-05 13:40 | 48.50957 | 3.90946 | 36789 ft | 448 kts | 96° |
| 2026-05-05 13:41 | 48.50536 | 4.00311 | 36787 ft | 447 kts | 99° |
| 2026-05-05 13:41 | 48.49750 | 4.04813 | 36764 ft | 442 kts | 116° |
| 2026-05-05 13:41 | 48.48258 | 4.08745 | 36788 ft | 438 kts | 127° |
| 2026-05-05 13:42 | 48.44625 | 4.16134 | 36780 ft | 439 kts | 128° |
| 2026-05-05 13:42 | 48.41013 | 4.23562 | 36785 ft | 439 kts | 128° |
| 2026-05-05 13:43 | 48.37452 | 4.30967 | 36785 ft | 439 kts | 128° |
| 2026-05-05 13:43 | 48.33871 | 4.38409 | 36788 ft | 439 kts | 128° |
| 2026-05-05 13:44 | 48.30288 | 4.45833 | 36786 ft | 439 kts | 128° |
| 2026-05-05 13:44 | 48.26692 | 4.53257 | 36793 ft | 439 kts | 128° |
| 2026-05-05 13:45 | 48.23098 | 4.60661 | 36788 ft | 439 kts | 128° |
| 2026-05-05 13:45 | 48.19496 | 4.68063 | 36795 ft | 439 kts | 128° |
| 2026-05-05 13:46 | 48.15888 | 4.75451 | 36800 ft | 439 kts | 129° |
| 2026-05-05 13:46 | 48.12277 | 4.82830 | 36795 ft | 439 kts | 129° |
| 2026-05-05 13:47 | 48.08660 | 4.90199 | 36789 ft | 441 kts | 129° |
| 2026-05-05 13:47 | 48.05037 | 4.97563 | 36797 ft | 439 kts | 129° |
| 2026-05-05 13:48 | 48.01440 | 5.04849 | 36803 ft | 438 kts | 129° |
| 2026-05-05 13:48 | 47.97816 | 5.12171 | 36806 ft | 438 kts | 129° |
| 2026-05-05 13:49 | 47.94186 | 5.19489 | 36810 ft | 438 kts | 129° |
| 2026-05-05 13:49 | 47.90561 | 5.26780 | 36808 ft | 438 kts | 129° |
| 2026-05-05 13:50 | 47.86925 | 5.34065 | 36804 ft | 438 kts | 130° |
| 2026-05-05 13:50 | 47.83286 | 5.41342 | 36810 ft | 437 kts | 130° |
| 2026-05-05 13:51 | 47.79652 | 5.48603 | 36813 ft | 437 kts | 130° |
| 2026-05-05 13:51 | 47.76011 | 5.55847 | 36815 ft | 436 kts | 130° |
| 2026-05-05 13:52 | 47.72361 | 5.63093 | 36816 ft | 437 kts | 130° |
| 2026-05-05 13:52 | 47.68739 | 5.70247 | 36819 ft | 437 kts | 130° |
| 2026-05-05 13:53 | 47.65082 | 5.77456 | 36818 ft | 437 kts | 130° |
| 2026-05-05 13:53 | 47.61421 | 5.84658 | 36820 ft | 437 kts | 130° |
| 2026-05-05 13:54 | 47.57752 | 5.91868 | 36823 ft | 438 kts | 130° |
| 2026-05-05 13:54 | 47.54082 | 5.99057 | 36827 ft | 438 kts | 130° |
| 2026-05-05 13:55 | 47.50397 | 6.06251 | 36827 ft | 439 kts | 130° |
| 2026-05-05 13:55 | 47.46705 | 6.13440 | 36829 ft | 439 kts | 130° |
| 2026-05-05 13:56 | 47.43008 | 6.20623 | 36827 ft | 439 kts | 130° |
| 2026-05-05 13:56 | 47.39304 | 6.27805 | 36832 ft | 440 kts | 131° |
| 2026-05-05 13:57 | 47.35588 | 6.34988 | 36831 ft | 440 kts | 131° |
| 2026-05-05 13:57 | 47.31868 | 6.42160 | 36832 ft | 441 kts | 131° |
| 2026-05-05 13:58 | 47.28129 | 6.49333 | 36841 ft | 441 kts | 131° |
| 2026-05-05 13:58 | 47.24389 | 6.56499 | 36853 ft | 441 kts | 131° |
| 2026-05-05 13:59 | 47.18759 | 6.67256 | 36867 ft | 443 kts | 131° |
| 2026-05-05 14:00 | 47.13749 | 6.76795 | 36876 ft | 444 kts | 131° |
| 2026-05-05 14:00 | 47.09331 | 6.85176 | 36877 ft | 444 kts | 131° |
| 2026-05-05 14:01 | 47.05568 | 6.92298 | 36872 ft | 445 kts | 132° |
| 2026-05-05 14:01 | 47.01758 | 6.99492 | 36866 ft | 447 kts | 132° |
| 2026-05-05 14:02 | 46.97934 | 7.06688 | 36860 ft | 445 kts | 132° |
| 2026-05-05 14:02 | 46.94123 | 7.13842 | 36863 ft | 446 kts | 132° |
| 2026-05-05 14:03 | 46.90306 | 7.20992 | 36876 ft | 446 kts | 132° |
| 2026-05-05 14:03 | 46.86480 | 7.28140 | 36857 ft | 448 kts | 132° |
| 2026-05-05 14:04 | 46.82636 | 7.35301 | 36872 ft | 448 kts | 133° |
| 2026-05-05 14:04 | 46.78793 | 7.42445 | 36867 ft | 448 kts | 133° |
| 2026-05-05 14:05 | 46.74952 | 7.49567 | 36874 ft | 449 kts | 133° |
| 2026-05-05 14:05 | 46.71093 | 7.56715 | 36864 ft | 449 kts | 133° |
| 2026-05-05 14:06 | 46.67214 | 7.63867 | 36850 ft | 450 kts | 133° |
| 2026-05-05 14:06 | 46.63324 | 7.71026 | 36868 ft | 452 kts | 133° |
| 2026-05-05 14:07 | 46.59430 | 7.78153 | 36880 ft | 449 kts | 133° |
| 2026-05-05 14:07 | 46.55546 | 7.85267 | 36866 ft | 449 kts | 133° |
| 2026-05-05 14:08 | 46.51663 | 7.92363 | 36875 ft | 449 kts | 134° |
| 2026-05-05 14:08 | 46.47758 | 7.99472 | 36886 ft | 450 kts | 134° |
| 2026-05-05 14:09 | 46.43841 | 8.06585 | 36914 ft | 451 kts | 134° |
| 2026-05-05 14:09 | 46.39925 | 8.13664 | 36928 ft | 450 kts | 134° |
| 2026-05-05 14:10 | 46.36004 | 8.20736 | 36950 ft | 450 kts | 134° |
| 2026-05-05 14:10 | 46.32084 | 8.27799 | 36966 ft | 450 kts | 135° |
| 2026-05-05 14:11 | 46.28165 | 8.34850 | 36984 ft | 450 kts | 135° |
| 2026-05-05 14:11 | 46.24234 | 8.41903 | 36985 ft | 451 kts | 135° |
| 2026-05-05 14:12 | 46.20296 | 8.48938 | 36996 ft | 450 kts | 135° |
| 2026-05-05 14:12 | 46.16380 | 8.55922 | 36998 ft | 450 kts | 135° |
| 2026-05-05 14:13 | 46.12432 | 8.62939 | 37000 ft | 450 kts | 136° |
| 2026-05-05 14:13 | 46.07800 | 8.68671 | 36999 ft | 433 kts | 156° |
| 2026-05-05 14:14 | 46.02509 | 8.72784 | 36998 ft | 431 kts | 158° |
| 2026-05-05 14:14 | 45.97221 | 8.76850 | 36989 ft | 431 kts | 158° |
| 2026-05-05 14:15 | 45.91938 | 8.80962 | 36988 ft | 432 kts | 158° |
| 2026-05-05 14:15 | 45.86644 | 8.85084 | 36996 ft | 433 kts | 158° |
| 2026-05-05 14:16 | 45.81349 | 8.89202 | 36983 ft | 433 kts | 158° |
| 2026-05-05 14:16 | 45.76049 | 8.93311 | 36981 ft | 433 kts | 158° |
| 2026-05-05 14:17 | 45.70736 | 8.97418 | 36983 ft | 434 kts | 158° |
| 2026-05-05 14:17 | 45.65460 | 9.01644 | 36977 ft | 439 kts | 152° |
| 2026-05-05 14:18 | 45.63108 | 9.04417 | 36981 ft | 449 kts | 141° |
| 2026-05-05 14:18 | 45.60972 | 9.07687 | 36986 ft | 451 kts | 138° |
| 2026-05-05 14:18 | 45.56791 | 9.14397 | 36985 ft | 452 kts | 138° |
| 2026-05-05 14:19 | 45.52584 | 9.21036 | 36997 ft | 451 kts | 138° |
| 2026-05-05 14:19 | 45.48358 | 9.27651 | 36991 ft | 451 kts | 138° |
| 2026-05-05 14:20 | 45.44121 | 9.34275 | 36992 ft | 452 kts | 138° |
| 2026-05-05 14:20 | 45.40591 | 9.39775 | 36990 ft | 452 kts | 138° |
| 2026-05-05 14:21 | 45.36345 | 9.46373 | 36984 ft | 452 kts | 138° |
| 2026-05-05 14:21 | 45.32089 | 9.52975 | 36980 ft | 452 kts | 138° |
| 2026-05-05 14:22 | 45.27827 | 9.59567 | 36970 ft | 453 kts | 138° |
| 2026-05-05 14:22 | 45.25726 | 9.62816 | 36860 ft | 447 kts | 138° |
| 2026-05-05 14:22 | 45.23595 | 9.66103 | 35880 ft | 452 kts | 138° |
| 2026-05-05 14:23 | 45.21473 | 9.69364 | 34796 ft | 460 kts | 138° |
| 2026-05-05 14:23 | 45.19279 | 9.72738 | 33777 ft | 466 kts | 138° |
| 2026-05-05 14:23 | 45.17073 | 9.76134 | 32705 ft | 469 kts | 138° |
| 2026-05-05 14:23 | 45.14859 | 9.79551 | 31802 ft | 470 kts | 138° |
| 2026-05-05 14:24 | 45.12662 | 9.82941 | 31164 ft | 465 kts | 138° |
| 2026-05-05 14:24 | 45.10478 | 9.86291 | 30503 ft | 461 kts | 139° |
| 2026-05-05 14:24 | 45.08181 | 9.89392 | 29777 ft | 449 kts | 150° |
| 2026-05-05 14:24 | 45.05519 | 9.91469 | 29120 ft | 431 kts | 165° |
| 2026-05-05 14:25 | 45.02671 | 9.92543 | 28392 ft | 418 kts | 176° |
| 2026-05-05 14:25 | 44.99812 | 9.93058 | 27699 ft | 412 kts | 179° |
| 2026-05-05 14:25 | 44.96969 | 9.93512 | 27005 ft | 409 kts | 179° |
| 2026-05-05 14:25 | 44.94156 | 9.93985 | 26350 ft | 406 kts | 178° |
| 2026-05-05 14:26 | 44.91363 | 9.94481 | 25704 ft | 403 kts | 178° |
| 2026-05-05 14:26 | 44.88588 | 9.94986 | 25062 ft | 400 kts | 178° |
| 2026-05-05 14:26 | 44.85879 | 9.95483 | 24452 ft | 397 kts | 178° |
| 2026-05-05 14:26 | 44.83112 | 9.95994 | 23838 ft | 394 kts | 178° |
| 2026-05-05 14:27 | 44.80400 | 9.96493 | 23193 ft | 392 kts | 178° |
| 2026-05-05 14:27 | 44.77710 | 9.96988 | 22600 ft | 387 kts | 178° |
| 2026-05-05 14:27 | 44.75051 | 9.97476 | 21973 ft | 383 kts | 178° |
| 2026-05-05 14:27 | 44.72446 | 9.97955 | 21345 ft | 380 kts | 178° |
| 2026-05-05 14:28 | 44.69807 | 9.98438 | 20785 ft | 376 kts | 178° |
| 2026-05-05 14:28 | 44.67219 | 9.98912 | 20218 ft | 372 kts | 178° |
| 2026-05-05 14:28 | 44.64667 | 9.99379 | 19688 ft | 369 kts | 177° |
| 2026-05-05 14:28 | 44.62166 | 9.99836 | 19203 ft | 364 kts | 177° |
| 2026-05-05 14:29 | 44.59670 | 10.00293 | 18691 ft | 360 kts | 177° |
| 2026-05-05 14:29 | 44.57197 | 10.00744 | 18127 ft | 358 kts | 177° |
| 2026-05-05 14:29 | 44.54729 | 10.01194 | 17498 ft | 355 kts | 177° |
| 2026-05-05 14:29 | 44.52295 | 10.01637 | 16879 ft | 353 kts | 177° |
| 2026-05-05 14:30 | 44.49871 | 10.02080 | 16283 ft | 350 kts | 177° |
| 2026-05-05 14:30 | 44.47455 | 10.02519 | 15711 ft | 348 kts | 177° |
| 2026-05-05 14:30 | 44.45060 | 10.02954 | 15207 ft | 345 kts | 177° |
| 2026-05-05 14:30 | 44.42721 | 10.03382 | 14989 ft | 333 kts | 177° |
| 2026-05-05 14:31 | 44.40475 | 10.03793 | 14946 ft | 321 kts | 178° |
| 2026-05-05 14:31 | 44.38267 | 10.04192 | 14943 ft | 320 kts | 177° |
| 2026-05-05 14:31 | 44.36052 | 10.04589 | 14958 ft | 321 kts | 177° |
| 2026-05-05 14:31 | 44.33851 | 10.04987 | 14825 ft | 316 kts | 177° |
| 2026-05-05 14:32 | 44.31646 | 10.05384 | 14129 ft | 323 kts | 177° |
| 2026-05-05 14:32 | 44.29403 | 10.05788 | 13601 ft | 323 kts | 177° |
| 2026-05-05 14:32 | 44.27205 | 10.06188 | 13363 ft | 313 kts | 177° |
| 2026-05-05 14:32 | 44.25081 | 10.06576 | 13194 ft | 302 kts | 177° |
| 2026-05-05 14:33 | 44.23034 | 10.06949 | 12989 ft | 293 kts | 176° |
| 2026-05-05 14:33 | 44.21032 | 10.07519 | 12563 ft | 294 kts | 171° |
| 2026-05-05 14:33 | 44.19139 | 10.08194 | 12127 ft | 294 kts | 170° |
| 2026-05-05 14:33 | 44.17180 | 10.08903 | 11697 ft | 293 kts | 170° |
| 2026-05-05 14:34 | 44.15208 | 10.09615 | 11281 ft | 291 kts | 170° |
| 2026-05-05 14:34 | 44.13203 | 10.10328 | 10899 ft | 305 kts | 170° |
| 2026-05-05 14:34 | 44.11137 | 10.11042 | 10564 ft | 307 kts | 170° |
| 2026-05-05 14:34 | 44.09069 | 10.11742 | 10195 ft | 304 kts | 170° |
| 2026-05-05 14:35 | 44.07042 | 10.12423 | 9977 ft | 296 kts | 170° |
| 2026-05-05 14:35 | 44.05073 | 10.13086 | 9941 ft | 284 kts | 170° |
| 2026-05-05 14:35 | 44.03162 | 10.13729 | 9934 ft | 282 kts | 170° |
| 2026-05-05 14:35 | 44.01249 | 10.14373 | 9955 ft | 283 kts | 170° |
| 2026-05-05 14:36 | 43.99338 | 10.15018 | 9963 ft | 283 kts | 170° |
| 2026-05-05 14:36 | 43.97428 | 10.15663 | 9967 ft | 283 kts | 170° |
| 2026-05-05 14:36 | 43.95514 | 10.16310 | 9968 ft | 283 kts | 170° |
| 2026-05-05 14:36 | 43.93602 | 10.16954 | 9972 ft | 283 kts | 170° |
| 2026-05-05 14:37 | 43.91682 | 10.17600 | 9973 ft | 284 kts | 170° |
| 2026-05-05 14:37 | 43.89762 | 10.18246 | 9976 ft | 284 kts | 170° |
| 2026-05-05 14:37 | 43.87842 | 10.18893 | 9984 ft | 284 kts | 170° |
| 2026-05-05 14:37 | 43.85927 | 10.19539 | 9991 ft | 284 kts | 170° |
| 2026-05-05 14:38 | 43.84010 | 10.20187 | 9985 ft | 284 kts | 170° |
| 2026-05-05 14:38 | 43.82088 | 10.20835 | 9984 ft | 284 kts | 170° |
| 2026-05-05 14:38 | 43.80161 | 10.21484 | 9989 ft | 285 kts | 170° |
| 2026-05-05 14:38 | 43.78238 | 10.22129 | 9988 ft | 284 kts | 170° |
| 2026-05-05 14:39 | 43.76316 | 10.22773 | 9993 ft | 285 kts | 170° |
| 2026-05-05 14:39 | 43.74386 | 10.23418 | 9990 ft | 284 kts | 170° |
| 2026-05-05 14:39 | 43.72465 | 10.24064 | 9992 ft | 284 kts | 170° |
| 2026-05-05 14:39 | 43.70565 | 10.24703 | 9992 ft | 285 kts | 170° |
| 2026-05-05 14:40 | 43.68617 | 10.25359 | 9991 ft | 285 kts | 170° |
| 2026-05-05 14:40 | 43.66695 | 10.26005 | 9991 ft | 285 kts | 170° |
| 2026-05-05 14:40 | 43.64789 | 10.26643 | 9997 ft | 285 kts | 170° |
| 2026-05-05 14:40 | 43.62862 | 10.27287 | 9995 ft | 285 kts | 170° |
| 2026-05-05 14:41 | 43.60937 | 10.27931 | 9995 ft | 285 kts | 170° |
| 2026-05-05 14:41 | 43.59006 | 10.28576 | 9993 ft | 285 kts | 170° |
| 2026-05-05 14:41 | 43.57076 | 10.29222 | 9992 ft | 285 kts | 170° |
| 2026-05-05 14:41 | 43.55225 | 10.30205 | 9996 ft | 291 kts | 151° |
| 2026-05-05 14:42 | 43.53748 | 10.32118 | 9721 ft | 296 kts | 128° |
| 2026-05-05 14:42 | 43.52911 | 10.34733 | 9287 ft | 303 kts | 104° |
| 2026-05-05 14:42 | 43.52881 | 10.37637 | 8914 ft | 306 kts | 79° |
| 2026-05-05 14:42 | 43.53664 | 10.40336 | 8552 ft | 306 kts | 56° |
| 2026-05-05 14:43 | 43.55101 | 10.42479 | 8201 ft | 302 kts | 39° |
| 2026-05-05 14:43 | 43.56721 | 10.44304 | 7885 ft | 299 kts | 37° |
| 2026-05-05 14:43 | 43.58354 | 10.46077 | 7517 ft | 298 kts | 37° |
| 2026-05-05 14:43 | 43.59976 | 10.47833 | 7167 ft | 296 kts | 37° |
| 2026-05-05 14:44 | 43.61570 | 10.49560 | 6984 ft | 294 kts | 37° |
| 2026-05-05 14:44 | 43.63199 | 10.51328 | 6957 ft | 294 kts | 37° |
| 2026-05-05 14:44 | 43.64790 | 10.53052 | 6971 ft | 294 kts | 37° |
| 2026-05-05 14:44 | 43.66402 | 10.54803 | 6981 ft | 294 kts | 37° |
| 2026-05-05 14:45 | 43.68001 | 10.56539 | 6904 ft | 289 kts | 37° |
| 2026-05-05 14:45 | 43.69605 | 10.58274 | 6524 ft | 289 kts | 37° |
| 2026-05-05 14:45 | 43.71170 | 10.59967 | 6130 ft | 289 kts | 37° |
| 2026-05-05 14:45 | 43.72757 | 10.61670 | 5760 ft | 288 kts | 37° |
| 2026-05-05 14:46 | 43.74338 | 10.63363 | 5389 ft | 287 kts | 37° |
| 2026-05-05 14:46 | 43.75920 | 10.65047 | 5052 ft | 285 kts | 37° |
| 2026-05-05 14:46 | 43.77603 | 10.66453 | 4941 ft | 282 kts | 18° |
| 2026-05-05 14:46 | 43.79518 | 10.66817 | 4959 ft | 278 kts | 352° |
| 2026-05-05 14:47 | 43.81345 | 10.66062 | 4976 ft | 272 kts | 327° |
| 2026-05-05 14:47 | 43.82814 | 10.64509 | 4825 ft | 262 kts | 314° |
| 2026-05-05 14:47 | 43.84145 | 10.62784 | 4460 ft | 262 kts | 313° |
| 2026-05-05 14:47 | 43.85395 | 10.60945 | 4162 ft | 262 kts | 306° |
| 2026-05-05 14:48 | 43.86468 | 10.58944 | 3907 ft | 254 kts | 296° |
| 2026-05-05 14:48 | 43.86953 | 10.56685 | 3620 ft | 238 kts | 269° |
| 2026-05-05 14:48 | 43.86604 | 10.54581 | 3565 ft | 217 kts | 240° |
| 2026-05-05 14:48 | 43.85768 | 10.52955 | 3581 ft | 194 kts | 231° |
| 2026-05-05 14:49 | 43.84952 | 10.51619 | 3609 ft | 172 kts | 232° |
| 2026-05-05 14:49 | 43.84143 | 10.50467 | 3412 ft | 164 kts | 217° |
| 2026-05-05 14:49 | 43.83135 | 10.49763 | 3145 ft | 161 kts | 204° |
| 2026-05-05 14:49 | 43.82154 | 10.49123 | 2991 ft | 151 kts | 209° |
| 2026-05-05 14:50 | 43.81223 | 10.48490 | 2855 ft | 149 kts | 206° |
| 2026-05-05 14:50 | 43.80279 | 10.47896 | 2664 ft | 148 kts | 208° |
| 2026-05-05 14:50 | 43.79376 | 10.47234 | 2407 ft | 140 kts | 211° |
| 2026-05-05 14:50 | 43.78573 | 10.46601 | 2162 ft | 130 kts | 212° |
| 2026-05-05 14:51 | 43.77742 | 10.46110 | 1886 ft | 131 kts | 200° |
| 2026-05-05 14:51 | 43.76861 | 10.45744 | 1627 ft | 131 kts | 201° |
| 2026-05-05 14:51 | 43.76013 | 10.45313 | 1450 ft | 130 kts | 204° |
| 2026-05-05 14:51 | 43.75192 | 10.44775 | 1295 ft | 132 kts | 209° |
| 2026-05-05 14:52 | 43.74428 | 10.44193 | 1187 ft | 130 kts | 211° |
| 2026-05-05 14:52 | 43.73628 | 10.43587 | 1038 ft | 131 kts | 210° |
| 2026-05-05 14:52 | 43.72825 | 10.42990 | 856 ft | 130 kts | 210° |
| 2026-05-05 14:52 | 43.72034 | 10.42437 | 644 ft | 130 kts | 208° |
| 2026-05-05 14:53 | 43.71214 | 10.41895 | 482 ft | 125 kts | 207° |
| 2026-05-05 14:53 | 43.70416 | 10.41394 | 317 ft | 127 kts | 209° |
| 2026-05-05 14:53 | 43.69671 | 10.40768 | 134 ft | 128 kts | 219° |
| 2026-05-05 14:53 | 43.68961 | 10.40032 | 38 ft | 127 kts | 219° |
| 2026-05-05 14:54 | 43.68346 | 10.39389 | 26 ft | 77 kts | 216° |
| 2026-05-05 14:54 | 43.68137 | 10.39177 | 22 ft | 4 kts | 218° |
| 2026-05-05 14:54 | 43.68129 | 10.39156 | 21 ft | 4 kts | 262° |
| 2026-05-05 14:54 | 43.68139 | 10.39116 | 22 ft | 6 kts | 304° |
| 2026-05-05 14:55 | 43.68167 | 10.39065 | 21 ft | 8 kts | 308° |
| 2026-05-05 14:55 | 43.68203 | 10.39003 | 20 ft | 9 kts | 308° |
| 2026-05-05 14:55 | 43.68268 | 10.38988 | 19 ft | 12 kts | 24° |
| 2026-05-05 14:55 | 43.68340 | 10.39059 | 22 ft | 14 kts | 37° |
| 2026-05-05 14:56 | 43.68422 | 10.39144 | 24 ft | 16 kts | 37° |
| 2026-05-05 14:56 | 43.68513 | 10.39239 | 23 ft | 18 kts | 37° |
| 2026-05-05 14:56 | 43.68622 | 10.39351 | 23 ft | 20 kts | 37° |
| 2026-05-05 14:56 | 43.68738 | 10.39471 | 23 ft | 22 kts | 37° |
| 2026-05-05 14:57 | 43.68865 | 10.39602 | 23 ft | 24 kts | 37° |
| 2026-05-05 14:57 | 43.69001 | 10.39741 | 25 ft | 26 kts | 37° |
| 2026-05-05 14:57 | 43.69138 | 10.39882 | 27 ft | 22 kts | 37° |
| 2026-05-05 14:57 | 43.69251 | 10.39915 | 28 ft | 15 kts | 353° |
| 2026-05-05 14:58 | 43.69308 | 10.39905 | 24 ft | 7 kts | 353° |
| 2026-05-05 14:58 | 43.69361 | 10.39896 | 22 ft | 8 kts | 353° |
| 2026-05-05 14:58 | 43.69427 | 10.39894 | 21 ft | 11 kts | 8° |
| 2026-05-05 14:58 | 43.69507 | 10.39912 | 21 ft | 13 kts | 9° |
| 2026-05-05 14:59 | 43.69599 | 10.39932 | 21 ft | 15 kts | 9° |
| 2026-05-05 14:59 | 43.69656 | 10.39944 | 21 ft | 9 kts | 7° |
| 2026-05-05 14:59 | 43.69711 | 10.39904 | 20 ft | 7 kts | 351° |
| 2026-05-05 14:59 | 43.69736 | 10.39906 | 20 ft | 6 kts | 11° |
| 2026-05-05 15:00 | 43.69747 | 10.39909 | 20 ft | 1 kts | 11° |
| 2026-05-05 15:00 | 43.69756 | 10.39911 | 20 ft | 3 kts | 11° |
| 2026-05-05 15:00 | 43.69762 | 10.39913 | 20 ft | 0 kts | 11° |